createdAt,value
2019-03-12T00:00:38.398Z,97.54
2019-03-12T00:03:45.183Z,97.69
2019-03-12T00:06:51.941Z,97.73
2019-03-12T00:09:58.714Z,97.60
2019-03-12T00:13:05.566Z,97.27
2019-03-12T00:16:12.621Z,97.54
2019-03-12T00:19:19.371Z,97.56
2019-03-12T00:22:26.511Z,97.25
2019-03-12T00:25:33.349Z,97.88
2019-03-12T00:28:40.363Z,97.74
2019-03-12T00:31:47.195Z,97.85
2019-03-12T00:34:54.116Z,97.70
2019-03-12T00:38:00.967Z,97.58
2019-03-12T00:41:07.744Z,97.81
2019-03-12T00:44:14.960Z,97.59
2019-03-12T00:47:21.859Z,98.00
2019-03-12T00:50:31.039Z,98.02
2019-03-12T00:53:37.709Z,98.57
2019-03-12T00:56:44.564Z,98.68
2019-03-12T00:59:52.549Z,98.76
2019-03-12T01:02:59.343Z,98.60
2019-03-12T01:06:06.333Z,98.63
2019-03-12T01:09:13.196Z,98.66
2019-03-12T01:12:20.159Z,98.41
2019-03-12T01:15:30.036Z,98.56
2019-03-12T01:18:36.970Z,98.55
2019-03-12T01:21:44.744Z,98.42
2019-03-12T01:24:51.560Z,98.07
2019-03-12T01:27:58.466Z,98.42
2019-03-12T01:31:05.607Z,98.68
2019-03-12T01:34:12.529Z,98.71
2019-03-12T01:37:20.536Z,98.89
2019-03-12T01:40:30.134Z,98.87
2019-03-12T01:43:36.990Z,98.59
2019-03-12T01:46:44.306Z,98.61
2019-03-12T01:49:51.169Z,98.66
2019-03-12T01:52:58.015Z,98.23
2019-03-12T01:56:04.870Z,98.04
2019-03-12T01:59:11.698Z,98.09
2019-03-12T02:02:20.521Z,97.99
2019-03-12T02:05:29.397Z,97.78
2019-03-12T02:08:36.457Z,97.82
2019-03-12T02:11:43.356Z,97.92
2019-03-12T02:14:50.216Z,97.69
2019-03-12T02:17:57.082Z,97.88
2019-03-12T02:21:03.931Z,97.84
2019-03-12T02:24:11.835Z,97.88
2019-03-12T02:27:18.855Z,97.95
2019-03-12T02:30:27.421Z,97.83
2019-03-12T02:33:37.375Z,97.91
2019-03-12T02:36:44.415Z,98.17
2019-03-12T02:39:51.339Z,98.47
2019-03-12T02:42:59.256Z,98.33
2019-03-12T02:46:08.519Z,97.81
2019-03-12T02:49:15.832Z,97.86
2019-03-12T02:52:23.717Z,97.77
2019-03-12T02:55:30.599Z,98.01
2019-03-12T02:58:37.390Z,97.64
2019-03-12T03:01:45.221Z,97.77
2019-03-12T03:04:54.229Z,97.96
2019-03-12T03:08:06.547Z,98.23
2019-03-12T03:11:13.336Z,98.12
2019-03-12T03:14:41.714Z,98.26
2019-03-12T03:17:48.563Z,98.15
2019-03-12T03:20:56.358Z,98.07
2019-03-12T03:24:03.360Z,98.25
2019-03-12T03:27:10.201Z,98.19
2019-03-12T03:30:21.118Z,98.25
2019-03-12T03:33:31.124Z,98.04
2019-03-12T03:36:37.080Z,97.82
2019-03-12T03:39:43.914Z,97.60
2019-03-12T03:42:52.514Z,97.89
2019-03-12T03:45:59.347Z,97.99
2019-03-12T03:49:06.314Z,98.19
2019-03-12T03:52:13.664Z,98.03
2019-03-12T03:55:20.609Z,97.70
2019-03-12T03:58:30.331Z,98.14
2019-03-12T04:01:39.880Z,97.78
2019-03-12T04:04:46.712Z,97.99
2019-03-12T04:07:53.597Z,98.14
2019-03-12T04:11:00.586Z,97.83
2019-03-12T04:14:07.370Z,98.05
2019-03-12T04:17:14.322Z,98.12
2019-03-12T04:20:21.327Z,97.84
2019-03-12T04:23:29.810Z,98.21
2019-03-12T04:26:38.529Z,98.01
2019-03-12T04:29:45.369Z,97.55
2019-03-12T04:32:52.454Z,98.10
2019-03-12T04:35:59.228Z,98.21
2019-03-12T04:39:07.742Z,98.34
2019-03-12T04:42:16.182Z,98.34
2019-03-12T04:45:25.678Z,98.25
2019-03-12T04:48:37.281Z,97.20
2019-03-12T04:51:44.165Z,97.36
2019-03-12T04:54:51.423Z,97.32
2019-03-12T04:57:59.384Z,96.81
2019-03-12T05:01:06.163Z,96.35
2019-03-12T05:04:13.197Z,96.46
2019-03-12T05:07:20.037Z,96.33
2019-03-12T05:10:26.951Z,95.83
2019-03-12T05:13:33.857Z,95.98
2019-03-12T05:16:40.596Z,96.42
2019-03-12T05:19:47.847Z,96.30
2019-03-12T05:22:54.924Z,96.07
2019-03-12T05:26:01.748Z,96.20
2019-03-12T05:29:10.835Z,96.47
2019-03-12T05:32:17.380Z,96.89
2019-03-12T05:35:28.355Z,96.10
2019-03-12T05:38:35.169Z,96.52
2019-03-12T05:41:44.750Z,96.11
2019-03-12T05:44:51.492Z,95.93
2019-03-12T05:47:59.486Z,96.24
2019-03-12T05:51:06.320Z,96.15
2019-03-12T05:54:13.173Z,95.83
2019-03-12T05:57:20.282Z,95.71
2019-03-12T06:00:29.919Z,95.27
2019-03-12T06:03:36.772Z,95.48
2019-03-12T06:06:43.566Z,96.57
2019-03-12T06:09:50.417Z,96.29
2019-03-12T06:12:57.289Z,96.80
2019-03-12T06:16:04.435Z,96.99
2019-03-12T06:19:11.311Z,96.78
2019-03-12T06:22:20.394Z,96.74
2019-03-12T06:25:30.641Z,96.43
2019-03-12T06:28:37.498Z,96.27
2019-03-12T06:32:02.103Z,96.19
2019-03-12T06:35:16.473Z,96.45
2019-03-12T06:38:33.251Z,96.32
2019-03-12T06:41:56.149Z,95.67
2019-03-12T06:45:23.022Z,95.76
2019-03-12T06:48:45.675Z,95.34
2019-03-12T06:52:29.868Z,95.93
2019-03-12T06:55:54.073Z,95.88
2019-03-12T06:59:18.804Z,95.45
2019-03-12T07:02:50.656Z,94.39
2019-03-12T07:06:13.881Z,94.60
2019-03-12T07:09:48.817Z,94.32
2019-03-12T07:13:04.949Z,95.00
2019-03-12T07:16:33.263Z,94.37
2019-03-12T07:20:13.330Z,93.58
2019-03-12T07:23:35.265Z,93.84
2019-03-12T07:27:01.528Z,92.98
2019-03-12T07:30:31.540Z,93.42
2019-03-12T07:33:51.742Z,92.94
2019-03-12T07:37:20.499Z,93.39
2019-03-12T07:40:55.757Z,92.74
2019-03-12T07:44:30.509Z,93.24
2019-03-12T07:47:56.266Z,92.07
2019-03-12T07:51:28.055Z,92.32
2019-03-12T07:54:50.877Z,91.73
2019-03-12T07:58:15.562Z,91.34
2019-03-12T08:01:56.646Z,91.72
2019-03-12T08:05:10.377Z,91.08
2019-03-12T08:08:42.467Z,91.51
2019-03-12T08:11:53.994Z,90.82
2019-03-12T08:15:22.609Z,90.91
2019-03-12T08:18:26.549Z,89.96
2019-03-12T08:21:41.658Z,90.25
2019-03-12T08:25:02.542Z,90.83
2019-03-12T08:28:25.236Z,91.01
2019-03-12T08:31:54.033Z,90.56
2019-03-12T08:35:09.653Z,90.10
2019-03-12T08:38:25.967Z,89.95
2019-03-12T08:41:41.256Z,90.36
2019-03-12T08:45:05.994Z,89.26
2019-03-12T08:48:34.760Z,88.56
2019-03-12T08:51:58.527Z,88.64
2019-03-12T08:55:30.519Z,89.13
2019-03-12T08:58:49.511Z,88.50
2019-03-12T09:02:21.779Z,89.43
2019-03-12T09:05:45.712Z,87.75
2019-03-12T09:09:10.443Z,87.72
2019-03-12T09:12:36.169Z,87.32
2019-03-12T09:15:55.952Z,87.82
2019-03-12T09:19:21.716Z,86.85
2019-03-12T09:22:49.130Z,86.82
2019-03-12T09:26:11.986Z,86.35
2019-03-12T09:29:27.119Z,85.02
2019-03-12T09:32:52.884Z,84.97
2019-03-12T09:36:29.153Z,83.14
2019-03-12T09:39:54.053Z,82.42
2019-03-12T09:43:10.806Z,81.66
2019-03-12T09:46:36.519Z,80.60
2019-03-12T09:50:07.393Z,77.02
2019-03-12T09:53:20.165Z,79.40
2019-03-12T09:56:44.535Z,77.80
2019-03-12T10:00:15.571Z,76.40
2019-03-12T10:03:33.105Z,78.36
2019-03-12T10:07:01.689Z,75.97
2019-03-12T10:10:34.218Z,76.05
2019-03-12T10:13:52.564Z,76.85
2019-03-12T10:17:21.376Z,74.77
2019-03-12T10:20:44.939Z,74.55
2019-03-12T10:23:57.904Z,75.91
2019-03-12T10:27:14.785Z,72.24
2019-03-12T10:30:43.567Z,73.67
2019-03-12T10:34:30.006Z,73.20
2019-03-12T10:37:48.074Z,74.35
2019-03-12T10:41:02.191Z,70.60
2019-03-12T10:44:23.207Z,71.14
2019-03-12T10:47:30.803Z,70.98
2019-03-12T10:50:37.743Z,71.08
2019-03-12T10:53:44.573Z,69.51
2019-03-12T10:56:51.760Z,67.88
2019-03-12T10:59:58.703Z,68.14
2019-03-12T11:03:05.621Z,68.56
2019-03-12T11:06:12.879Z,67.10
2019-03-12T11:09:19.901Z,66.94
2019-03-12T11:12:26.734Z,69.55
2019-03-12T11:15:33.586Z,67.67
2019-03-12T11:18:40.328Z,66.38
2019-03-12T11:21:47.159Z,65.28
2019-03-12T11:24:54.057Z,68.80
2019-03-12T11:28:00.988Z,64.81
2019-03-12T11:31:08.907Z,66.35
2019-03-12T11:34:17.151Z,65.43
2019-03-12T11:37:24.108Z,65.94
2019-03-12T11:40:32.499Z,67.02
2019-03-12T11:43:39.485Z,68.00
2019-03-12T11:46:46.534Z,65.46
2019-03-12T11:49:53.546Z,63.15
2019-03-12T11:53:00.966Z,63.19
2019-03-12T11:56:09.211Z,62.96
2019-03-12T11:59:16.066Z,65.16
2019-03-12T12:02:23.630Z,64.64
2019-03-12T12:05:30.632Z,63.89
2019-03-12T12:08:37.913Z,64.57
2019-03-12T12:11:44.743Z,63.32
2019-03-12T12:14:54.530Z,64.43
2019-03-12T12:18:02.479Z,63.91
2019-03-12T12:21:09.314Z,63.60
2019-03-12T12:24:19.213Z,62.53
2019-03-12T12:27:28.909Z,62.35
2019-03-12T12:30:35.900Z,62.29
2019-03-12T12:33:42.791Z,63.03
2019-03-12T12:36:52.850Z,63.25
2019-03-12T12:40:02.292Z,63.24
2019-03-12T12:43:09.320Z,63.58
2019-03-12T12:46:16.681Z,62.85
2019-03-12T12:49:23.842Z,62.04
2019-03-12T12:52:30.621Z,61.08
2019-03-12T12:55:37.401Z,60.93
2019-03-12T12:58:46.969Z,62.50
2019-03-12T13:01:53.999Z,61.55
2019-03-12T13:05:00.842Z,62.09
2019-03-12T13:08:07.970Z,61.28
2019-03-12T13:11:15.733Z,61.18
2019-03-12T13:14:22.666Z,60.62
2019-03-12T13:17:29.497Z,61.63
2019-03-12T13:20:36.349Z,61.18
2019-03-12T13:23:44.309Z,60.68
2019-03-12T13:26:53.541Z,59.88
2019-03-12T13:30:00.317Z,60.26
2019-03-12T13:33:07.192Z,60.07
2019-03-12T13:36:16.946Z,60.84
2019-03-12T13:39:25.534Z,61.11
2019-03-12T13:42:32.454Z,60.24
2019-03-12T13:45:39.583Z,58.84
2019-03-12T13:48:46.435Z,58.11
2019-03-12T13:51:55.947Z,59.04
2019-03-12T13:55:03.724Z,58.85
2019-03-12T13:58:11.617Z,58.85
2019-03-12T14:01:24.203Z,59.01
2019-03-12T14:04:32.216Z,58.96
2019-03-12T14:07:39.109Z,58.07
2019-03-12T14:10:45.999Z,59.41
2019-03-12T14:13:53.964Z,58.33
2019-03-12T14:17:00.810Z,56.24
2019-03-12T14:20:48.087Z,55.47
2019-03-12T14:24:03.493Z,55.62
2019-03-12T14:27:11.897Z,54.36
2019-03-12T14:30:21.150Z,55.93
2019-03-12T14:33:29.202Z,55.30
2019-03-12T14:36:36.314Z,55.59
2019-03-12T14:39:43.192Z,57.33
2019-03-12T14:42:50.063Z,56.12
2019-03-12T14:45:57.116Z,55.92
2019-03-12T14:49:09.721Z,54.68
2019-03-12T14:52:29.300Z,56.14
2019-03-12T14:55:36.185Z,54.77
2019-03-12T14:58:43.153Z,56.60
2019-03-12T15:01:50.029Z,56.76
2019-03-12T15:04:56.883Z,56.46
2019-03-12T15:08:03.830Z,56.47
2019-03-12T15:11:10.624Z,58.11
2019-03-12T15:14:23.023Z,56.40
2019-03-12T15:17:29.768Z,55.89
2019-03-12T15:20:36.648Z,56.33
2019-03-12T15:23:44.648Z,57.12
2019-03-12T15:26:51.432Z,57.79
2019-03-12T15:29:58.393Z,57.47
2019-03-12T15:33:05.291Z,56.80
2019-03-12T15:36:12.296Z,58.67
2019-03-12T15:39:22.342Z,58.09
2019-03-12T15:42:30.051Z,57.54
2019-03-12T15:45:47.509Z,57.82
2019-03-12T15:48:57.423Z,58.22
2019-03-12T15:52:04.422Z,58.65
2019-03-12T15:55:12.933Z,58.18
2019-03-12T15:58:20.919Z,57.49
2019-03-12T16:01:27.695Z,59.38
2019-03-12T16:04:36.579Z,58.62
2019-03-12T16:07:43.331Z,57.48
2019-03-12T16:10:57.963Z,58.16
2019-03-12T16:13:58.718Z,58.49
2019-03-12T16:17:05.838Z,61.56
2019-03-12T16:20:13.651Z,60.14
2019-03-12T16:23:21.722Z,61.13
2019-03-12T16:26:28.538Z,61.74
2019-03-12T16:29:36.435Z,60.13
2019-03-12T16:32:45.357Z,61.59
2019-03-12T16:35:52.478Z,60.29
2019-03-12T16:39:00.206Z,61.02
2019-03-12T16:42:07.852Z,60.87
2019-03-12T16:45:14.979Z,61.71
2019-03-12T16:48:22.224Z,61.47
2019-03-12T16:51:29.086Z,61.70
2019-03-12T16:54:38.331Z,61.56
2019-03-12T16:57:47.363Z,61.36
2019-03-12T17:00:54.268Z,61.92
2019-03-12T17:04:01.091Z,61.47
2019-03-12T17:07:07.933Z,61.81
2019-03-12T17:10:17.524Z,61.76
2019-03-12T17:13:26.991Z,61.55
2019-03-12T17:16:33.830Z,62.14
2019-03-12T17:19:41.152Z,61.28
2019-03-12T17:22:48.040Z,62.41
2019-03-12T17:25:55.013Z,60.49
2019-03-12T17:29:01.796Z,62.07
2019-03-12T17:32:08.757Z,62.74
2019-03-12T17:35:18.918Z,60.46
2019-03-12T17:38:45.871Z,61.38
2019-03-12T17:41:41.664Z,59.16
2019-03-12T17:44:48.542Z,59.17
2019-03-12T17:47:55.382Z,58.17
2019-03-12T17:51:02.303Z,57.86
2019-03-12T17:54:09.132Z,60.46
2019-03-12T17:57:17.309Z,58.10
2019-03-12T18:00:28.315Z,58.22
2019-03-12T18:03:34.648Z,58.59
2019-03-12T18:06:41.542Z,57.44
2019-03-12T18:09:48.455Z,58.54
2019-03-12T18:12:55.304Z,57.96
2019-03-12T18:16:02.180Z,56.95
2019-03-12T18:19:09.036Z,57.69
2019-03-12T18:22:16.336Z,58.87
2019-03-12T18:25:26.015Z,58.14
2019-03-12T18:28:32.993Z,57.06
2019-03-12T18:31:40.494Z,57.04
2019-03-12T18:34:47.468Z,56.57
2019-03-12T18:38:00.594Z,58.37
2019-03-12T18:41:25.432Z,58.15
2019-03-12T18:44:38.117Z,56.88
2019-03-12T18:47:47.157Z,56.91
2019-03-12T18:50:59.423Z,56.53
2019-03-12T18:54:14.211Z,57.83
2019-03-12T18:57:29.242Z,56.46
2019-03-12T19:00:38.466Z,56.37
2019-03-12T19:03:55.236Z,57.16
2019-03-12T19:07:03.887Z,56.32
2019-03-12T19:10:13.408Z,56.71
2019-03-12T19:13:22.802Z,55.69
2019-03-12T19:16:31.485Z,56.72
2019-03-12T19:19:42.480Z,54.87
2019-03-12T19:22:50.359Z,55.21
2019-03-12T19:25:57.722Z,57.03
2019-03-12T19:29:06.428Z,55.74
2019-03-12T19:32:19.467Z,53.92
2019-03-12T19:35:29.109Z,55.26
2019-03-12T19:38:36.027Z,55.46
2019-03-12T19:41:45.833Z,54.56
2019-03-12T19:44:53.208Z,53.08
2019-03-12T19:48:01.622Z,53.28
2019-03-12T19:51:09.681Z,48.75
2019-03-12T19:54:16.831Z,49.02
2019-03-12T19:57:23.983Z,51.11
2019-03-12T20:00:32.060Z,49.75
2019-03-12T20:03:39.009Z,52.23
2019-03-12T20:06:46.028Z,53.42
2019-03-12T20:11:01.453Z,51.61
2019-03-12T20:15:22.897Z,51.79
2019-03-12T20:19:24.472Z,52.24
2019-03-12T20:24:03.390Z,50.77
2019-03-12T20:28:12.338Z,52.64
2019-03-12T20:32:09.384Z,50.51
2019-03-12T20:36:40.898Z,51.64
2019-03-12T20:40:40.294Z,52.67
2019-03-12T20:44:58.692Z,52.58
2019-03-12T20:49:13.976Z,53.36
2019-03-12T20:53:12.554Z,53.28
2019-03-12T20:57:13.744Z,52.35
2019-03-12T21:01:27.746Z,54.51
2019-03-12T21:05:38.450Z,51.98
2019-03-12T21:09:40.433Z,52.97
2019-03-12T21:13:52.906Z,51.60
2019-03-12T21:18:10.119Z,49.92
2019-03-12T21:22:03.624Z,49.75
2019-03-12T21:26:29.030Z,49.51
2019-03-12T21:29:49.982Z,49.54
2019-03-12T21:32:57.088Z,51.54
2019-03-12T21:36:04.028Z,48.19
2019-03-12T21:39:11.071Z,48.90
2019-03-12T21:42:19.513Z,47.48
2019-03-12T21:45:26.598Z,46.95
2019-03-12T21:48:33.526Z,47.01
2019-03-12T21:51:40.323Z,44.36
2019-03-12T21:54:47.170Z,43.73
2019-03-12T21:57:54.213Z,45.65
2019-03-12T22:01:02.108Z,46.63
2019-03-12T22:04:14.046Z,45.25
2019-03-12T22:07:20.848Z,45.62
2019-03-12T22:10:27.809Z,44.38
2019-03-12T22:13:34.668Z,45.14
2019-03-12T22:16:42.430Z,49.29
2019-03-12T22:19:49.539Z,47.15
2019-03-12T22:23:09.978Z,46.62
2019-03-12T22:26:20.110Z,46.55
2019-03-12T22:29:27.993Z,47.50
2019-03-12T22:32:34.932Z,48.36
2019-03-12T22:35:41.863Z,47.81
2019-03-12T22:38:48.775Z,46.96
2019-03-12T22:41:56.800Z,48.35
2019-03-12T22:45:04.741Z,46.60
2019-03-12T22:48:11.970Z,46.29
2019-03-12T22:51:18.751Z,48.63
2019-03-12T22:54:25.544Z,48.89
2019-03-12T22:57:32.310Z,49.37
2019-03-12T23:00:58.254Z,46.83
2019-03-12T23:04:23.357Z,46.61
2019-03-12T23:07:48.679Z,48.21
2019-03-12T23:10:57.385Z,46.64
2019-03-12T23:14:04.297Z,44.69
2019-03-12T23:17:12.282Z,46.98
2019-03-12T23:20:21.569Z,44.53
2019-03-12T23:23:28.677Z,45.68
2019-03-12T23:26:35.851Z,44.40
2019-03-12T23:29:48.623Z,45.81
2019-03-12T23:32:55.856Z,46.83
2019-03-12T23:36:02.791Z,45.89
2019-03-12T23:39:10.294Z,46.24
2019-03-12T23:42:17.115Z,45.07
2019-03-12T23:45:24.935Z,47.32
2019-03-12T23:48:31.783Z,48.75
2019-03-12T23:51:39.974Z,47.32
2019-03-12T23:54:50.449Z,48.26
2019-03-12T23:57:57.378Z,48.08
